createdAt,value
2019-01-15T00:01:21.187Z,12.33
2019-01-15T00:03:48.391Z,9.73
2019-01-15T00:06:15.754Z,14.33
2019-01-15T00:08:42.980Z,14.00
2019-01-15T00:11:10.249Z,8.88
2019-01-15T00:13:37.546Z,9.85
2019-01-15T00:16:04.818Z,11.97
2019-01-15T00:18:32.114Z,13.05
2019-01-15T00:20:59.323Z,10.70
2019-01-15T00:23:26.593Z,19.55
2019-01-15T00:25:53.915Z,9.08
2019-01-15T00:28:21.188Z,8.68
2019-01-15T00:30:48.455Z,10.28
2019-01-15T00:33:15.771Z,22.42
2019-01-15T00:35:43.038Z,12.03
2019-01-15T00:38:10.315Z,9.33
2019-01-15T00:40:37.617Z,9.83
2019-01-15T00:43:04.897Z,7.75
2019-01-15T00:45:32.178Z,14.95
2019-01-15T00:47:59.483Z,12.82
2019-01-15T00:50:26.764Z,12.70
2019-01-15T00:52:54.070Z,9.83
2019-01-15T00:55:21.351Z,11.60
2019-01-15T00:57:48.627Z,17.85
2019-01-15T01:00:17.639Z,11.08
2019-01-15T01:02:44.914Z,8.50
2019-01-15T01:05:12.151Z,12.68
2019-01-15T01:07:39.423Z,9.03
2019-01-15T01:10:08.379Z,10.70
2019-01-15T01:12:35.680Z,9.88
2019-01-15T01:15:03.551Z,9.45
2019-01-15T01:17:30.829Z,9.60
2019-01-15T01:19:58.126Z,11.00
2019-01-15T01:22:25.467Z,11.35
2019-01-15T01:24:52.752Z,8.93
2019-01-15T01:27:20.041Z,12.18
2019-01-15T01:29:47.348Z,13.68
2019-01-15T01:32:14.621Z,9.40
2019-01-15T01:34:41.903Z,13.35
2019-01-15T01:37:09.207Z,10.72
2019-01-15T01:39:36.403Z,9.48
2019-01-15T01:42:03.679Z,8.53
2019-01-15T01:44:30.985Z,19.85
2019-01-15T01:46:58.266Z,13.20
2019-01-15T01:49:25.551Z,13.13
2019-01-15T01:51:52.852Z,11.15
2019-01-15T01:54:20.119Z,9.10
2019-01-15T01:56:47.436Z,8.65
2019-01-15T01:59:14.714Z,8.55
2019-01-15T02:01:41.992Z,8.65
2019-01-15T02:04:09.290Z,9.20
2019-01-15T02:06:36.575Z,14.98
2019-01-15T02:09:05.584Z,10.30
2019-01-15T02:11:32.859Z,9.25
2019-01-15T02:14:00.144Z,10.50
2019-01-15T02:16:27.457Z,10.98
2019-01-15T02:18:54.730Z,9.78
2019-01-15T02:21:22.007Z,9.33
2019-01-15T02:23:49.303Z,9.23
2019-01-15T02:26:16.601Z,14.03
2019-01-15T02:28:43.874Z,9.65
2019-01-15T02:31:11.180Z,11.83
2019-01-15T02:33:38.452Z,9.13
2019-01-15T02:36:05.734Z,8.88
2019-01-15T02:38:33.032Z,12.47
2019-01-15T02:41:00.315Z,14.47
2019-01-15T02:43:27.623Z,8.88
2019-01-15T02:45:54.913Z,8.43
2019-01-15T02:48:22.199Z,14.10
2019-01-15T02:50:49.508Z,9.90
2019-01-15T02:53:16.783Z,9.70
2019-01-15T02:55:44.060Z,14.90
2019-01-15T02:58:11.363Z,10.80
2019-01-15T03:00:38.639Z,9.25
2019-01-15T03:03:05.952Z,9.90
2019-01-15T03:05:33.351Z,10.40
2019-01-15T03:08:00.632Z,11.53
2019-01-15T03:10:27.926Z,10.08
2019-01-15T03:12:56.574Z,13.85
2019-01-15T03:15:24.053Z,17.17
2019-01-15T03:17:51.347Z,18.65
2019-01-15T03:20:18.640Z,12.88
2019-01-15T03:22:45.938Z,12.45
2019-01-15T03:25:13.209Z,13.03
2019-01-15T03:27:40.509Z,10.48
2019-01-15T03:30:15.587Z,10.65
2019-01-15T03:32:42.860Z,12.23
2019-01-15T03:35:10.168Z,16.75
2019-01-15T03:37:37.451Z,13.58
2019-01-15T03:40:06.363Z,12.63
2019-01-15T03:42:33.668Z,11.10
2019-01-15T03:45:00.973Z,10.40
2019-01-15T03:47:28.263Z,15.08
2019-01-15T03:49:55.552Z,12.53
2019-01-15T03:52:22.859Z,13.95
2019-01-15T03:54:50.151Z,14.10
2019-01-15T03:57:17.457Z,13.58
2019-01-15T03:59:44.740Z,11.50
2019-01-15T04:02:13.682Z,11.45
2019-01-15T04:04:41.292Z,15.03
2019-01-15T04:07:08.934Z,12.13
2019-01-15T04:09:36.417Z,12.07
2019-01-15T04:12:03.722Z,12.73
2019-01-15T04:14:31.028Z,11.68
2019-01-15T04:16:58.315Z,11.57
2019-01-15T04:19:25.612Z,11.20
2019-01-15T04:21:52.921Z,12.15
2019-01-15T04:24:20.199Z,11.75
2019-01-15T04:26:47.504Z,15.48
2019-01-15T04:29:14.786Z,14.20
2019-01-15T04:31:42.072Z,12.88
2019-01-15T04:34:09.375Z,12.50
2019-01-15T04:36:36.658Z,12.70
2019-01-15T04:39:06.193Z,15.32
2019-01-15T04:41:33.498Z,18.50
2019-01-15T04:44:00.786Z,13.25
2019-01-15T04:46:28.426Z,14.98
2019-01-15T04:48:55.712Z,14.35
2019-01-15T04:51:22.998Z,16.35
2019-01-15T04:53:50.316Z,13.13
2019-01-15T04:56:17.603Z,16.42
2019-01-15T04:58:46.362Z,13.65
2019-01-15T05:01:13.935Z,12.50
2019-01-15T05:03:41.202Z,13.45
2019-01-15T05:06:08.520Z,16.85
2019-01-15T05:08:35.802Z,16.52
2019-01-15T05:11:03.107Z,15.78
2019-01-15T05:13:30.869Z,17.52
2019-01-15T05:15:58.420Z,12.18
2019-01-15T05:18:25.694Z,12.58
2019-01-15T05:20:53.344Z,12.23
2019-01-15T05:23:20.705Z,12.50
2019-01-15T05:25:48.463Z,12.15
2019-01-15T05:28:15.775Z,16.12
2019-01-15T05:30:43.075Z,13.72
2019-01-15T05:33:10.359Z,15.60
2019-01-15T05:35:37.671Z,15.18
2019-01-15T05:38:04.961Z,16.37
2019-01-15T05:40:32.708Z,16.55
2019-01-15T05:43:00.995Z,13.15
2019-01-15T05:45:29.934Z,14.38
2019-01-15T05:47:59.333Z,17.25
2019-01-15T05:50:37.360Z,13.03
2019-01-15T05:53:04.827Z,13.55
2019-01-15T05:55:32.115Z,13.10
2019-01-15T05:57:59.423Z,12.65
2019-01-15T06:00:27.006Z,15.83
2019-01-15T06:02:54.296Z,12.05
2019-01-15T06:05:21.581Z,11.95
2019-01-15T06:07:48.895Z,16.07
2019-01-15T06:10:16.545Z,11.48
2019-01-15T06:12:47.665Z,12.28
2019-01-15T06:15:15.913Z,14.55
2019-01-15T06:17:43.198Z,17.05
2019-01-15T06:20:12.143Z,11.85
2019-01-15T06:22:39.430Z,19.77
2019-01-15T06:25:07.401Z,11.55
2019-01-15T06:27:34.709Z,11.97
2019-01-15T06:30:01.995Z,11.35
2019-01-15T06:32:29.275Z,10.93
2019-01-15T06:34:56.581Z,20.95
2019-01-15T06:37:23.859Z,15.20
2019-01-15T06:39:51.193Z,12.05
2019-01-15T06:42:18.458Z,13.10
2019-01-15T06:44:45.740Z,16.35
2019-01-15T06:47:13.038Z,12.18
2019-01-15T06:49:40.252Z,11.33
2019-01-15T06:52:07.544Z,10.70
2019-01-15T06:54:34.838Z,10.93
2019-01-15T06:57:02.145Z,18.40
2019-01-15T06:59:29.407Z,11.85
2019-01-15T07:01:56.702Z,9.90
2019-01-15T07:04:24.026Z,13.45
2019-01-15T07:06:51.302Z,10.70
2019-01-15T07:09:18.590Z,12.82
2019-01-15T07:11:45.943Z,12.98
2019-01-15T07:14:13.172Z,10.30
2019-01-15T07:16:40.714Z,13.40
2019-01-15T07:19:07.948Z,11.45
2019-01-15T07:21:35.347Z,10.28
2019-01-15T07:24:02.627Z,14.15
2019-01-15T07:26:29.920Z,13.32
2019-01-15T07:28:57.221Z,11.43
2019-01-15T07:31:24.496Z,11.15
2019-01-15T07:33:51.793Z,11.33
2019-01-15T07:36:19.074Z,10.32
2019-01-15T07:38:46.316Z,11.65
2019-01-15T07:41:13.616Z,13.48
2019-01-15T07:43:40.885Z,13.78
2019-01-15T07:46:08.118Z,14.90
2019-01-15T07:48:35.341Z,21.42
2019-01-15T07:51:02.702Z,16.30
2019-01-15T07:53:29.983Z,14.13
2019-01-15T07:55:57.255Z,9.18
2019-01-15T07:58:24.571Z,9.98
2019-01-15T08:00:51.989Z,8.83
2019-01-15T08:03:19.217Z,8.90
2019-01-15T08:05:46.442Z,10.78
2019-01-15T08:08:13.878Z,9.55
2019-01-15T08:10:41.734Z,19.00
2019-01-15T08:13:09.288Z,12.70
2019-01-15T08:15:36.698Z,14.63
2019-01-15T08:18:04.377Z,8.80
2019-01-15T08:20:31.671Z,12.82
2019-01-15T08:22:58.870Z,9.35
2019-01-15T08:25:26.146Z,10.13
2019-01-15T08:27:53.376Z,9.10
2019-01-15T08:30:28.005Z,9.58
2019-01-15T08:32:55.293Z,9.30
2019-01-15T08:35:22.578Z,8.18
2019-01-15T08:37:49.883Z,12.70
2019-01-15T08:40:17.455Z,9.03
2019-01-15T08:42:44.725Z,9.55
2019-01-15T08:45:13.266Z,13.72
2019-01-15T08:47:44.582Z,8.93
2019-01-15T08:50:13.490Z,10.03
2019-01-15T08:52:40.778Z,8.90
2019-01-15T08:55:08.089Z,8.88
2019-01-15T08:57:35.390Z,9.25
2019-01-15T09:00:02.663Z,8.88
2019-01-15T09:02:29.950Z,10.32
2019-01-15T09:04:57.243Z,9.63
2019-01-15T09:07:24.526Z,18.02
2019-01-15T09:09:51.822Z,8.63
2019-01-15T09:12:19.022Z,10.58
2019-01-15T09:14:46.294Z,8.53
2019-01-15T09:17:13.603Z,12.07
2019-01-15T09:19:40.885Z,8.45
2019-01-15T09:22:08.223Z,12.00
2019-01-15T09:24:35.478Z,9.48
2019-01-15T09:27:02.950Z,8.80
2019-01-15T09:29:30.267Z,9.70
2019-01-15T09:31:57.554Z,10.15
2019-01-15T09:34:24.785Z,8.63
2019-01-15T09:36:52.063Z,9.40
2019-01-15T09:39:19.340Z,9.30
2019-01-15T09:41:46.634Z,9.20
2019-01-15T09:44:13.910Z,10.93
2019-01-15T09:46:41.141Z,9.80
2019-01-15T09:49:08.438Z,10.70
2019-01-15T09:51:35.715Z,10.05
2019-01-15T09:54:03.076Z,9.90
2019-01-15T09:56:30.350Z,10.60
2019-01-15T09:58:57.659Z,11.03
2019-01-15T10:01:24.939Z,11.28
2019-01-15T10:03:52.236Z,10.75
2019-01-15T10:06:19.496Z,10.00
2019-01-15T10:08:46.778Z,10.03
2019-01-15T10:11:14.068Z,10.28
2019-01-15T10:13:41.252Z,9.60
2019-01-15T10:16:08.464Z,10.13
2019-01-15T10:18:35.652Z,10.10
2019-01-15T10:21:02.911Z,9.85
2019-01-15T10:23:30.121Z,9.25
2019-01-15T10:25:57.455Z,10.68
2019-01-15T10:28:24.667Z,8.93
2019-01-15T10:30:53.962Z,11.95
2019-01-15T10:33:22.857Z,15.30
2019-01-15T10:35:57.025Z,10.03
2019-01-15T10:38:28.043Z,10.65
2019-01-15T10:40:56.876Z,10.38
2019-01-15T10:43:24.136Z,9.08
2019-01-15T10:45:51.369Z,10.58
2019-01-15T10:48:18.560Z,12.80
2019-01-15T10:50:46.502Z,10.00
2019-01-15T10:53:14.103Z,9.93
2019-01-15T10:55:41.370Z,9.70
2019-01-15T10:58:08.655Z,9.68
2019-01-15T11:00:35.856Z,13.22
2019-01-15T11:03:03.098Z,10.63
2019-01-15T11:05:30.385Z,13.25
2019-01-15T11:07:57.657Z,9.78
2019-01-15T11:10:25.224Z,13.22
2019-01-15T11:12:52.646Z,11.20
2019-01-15T11:15:19.991Z,9.95
2019-01-15T11:17:48.174Z,10.53
2019-01-15T11:20:16.622Z,10.20
2019-01-15T11:22:46.077Z,9.45
2019-01-15T11:25:13.270Z,8.83
2019-01-15T11:27:40.533Z,9.03
2019-01-15T11:30:11.919Z,10.43
2019-01-15T11:32:39.119Z,9.13
2019-01-15T11:35:08.301Z,9.43
2019-01-15T11:37:35.661Z,12.13
2019-01-15T11:40:03.618Z,8.65
2019-01-15T11:42:30.852Z,9.48
2019-01-15T11:45:03.324Z,10.53
2019-01-15T11:47:27.133Z,9.35
2019-01-15T11:49:54.393Z,10.55
2019-01-15T11:52:21.588Z,10.18
2019-01-15T11:54:48.818Z,9.53
2019-01-15T11:57:16.023Z,10.75
2019-01-15T11:59:43.304Z,11.68
2019-01-15T12:02:12.250Z,11.38
2019-01-15T12:04:44.139Z,10.68
2019-01-15T12:07:13.053Z,9.25
2019-01-15T12:09:42.007Z,11.08
2019-01-15T12:12:10.939Z,9.60
2019-01-15T12:14:56.010Z,13.88
2019-01-15T12:17:41.470Z,12.33
2019-01-15T12:20:11.305Z,11.35
2019-01-15T12:22:49.263Z,10.40
2019-01-15T12:25:24.879Z,10.70
2019-01-15T12:28:12.164Z,11.40
2019-01-15T12:30:49.668Z,10.50
2019-01-15T12:33:18.590Z,11.88
2019-01-15T12:36:03.870Z,11.88
2019-01-15T12:38:39.038Z,12.60
2019-01-15T12:41:24.545Z,10.80
2019-01-15T12:44:02.259Z,11.05
2019-01-15T12:46:40.288Z,10.40
2019-01-15T12:49:09.231Z,10.72
2019-01-15T12:51:53.470Z,10.18
2019-01-15T12:54:28.335Z,11.40
2019-01-15T12:57:19.088Z,14.47
2019-01-15T13:00:00.723Z,11.05
2019-01-15T13:02:32.277Z,10.80
2019-01-15T13:05:06.793Z,11.28
2019-01-15T13:07:35.752Z,11.45
2019-01-15T13:10:04.723Z,11.15
2019-01-15T13:12:48.912Z,11.80
2019-01-15T13:15:26.137Z,11.28
2019-01-15T13:17:51.327Z,11.57
2019-01-15T13:20:29.311Z,10.58
2019-01-15T13:23:06.981Z,12.00
2019-01-15T13:25:47.745Z,10.35
2019-01-15T13:28:16.664Z,10.63
2019-01-15T13:30:57.494Z,10.75
2019-01-15T13:33:42.747Z,11.57
2019-01-15T13:36:11.696Z,12.45
2019-01-15T13:38:49.861Z,9.70
2019-01-15T13:41:18.791Z,12.78
2019-01-15T13:43:53.539Z,10.32
2019-01-15T13:46:40.532Z,12.55
2019-01-15T13:49:09.480Z,10.48
2019-01-15T13:51:41.059Z,10.05
2019-01-15T13:54:26.307Z,10.10
2019-01-15T13:57:06.974Z,9.88
2019-01-15T13:59:35.932Z,13.60
2019-01-15T14:02:14.038Z,10.72
2019-01-15T14:04:45.592Z,10.80
2019-01-15T14:07:14.544Z,11.50
2019-01-15T14:09:43.474Z,12.25
2019-01-15T14:12:18.016Z,11.40
2019-01-15T14:14:55.976Z,14.87
2019-01-15T14:17:41.184Z,13.83
2019-01-15T14:20:27.411Z,18.55
2019-01-15T14:23:12.588Z,12.20
2019-01-15T14:25:50.533Z,12.13
2019-01-15T14:28:22.214Z,18.05
2019-01-15T14:30:54.150Z,12.80
2019-01-15T14:33:23.075Z,19.60
2019-01-15T14:36:08.539Z,12.95
2019-01-15T14:38:37.459Z,16.12
2019-01-15T14:41:09.093Z,13.48
2019-01-15T14:43:40.483Z,14.33
2019-01-15T14:46:26.084Z,13.05
2019-01-15T14:49:11.506Z,13.10
2019-01-15T14:51:40.423Z,14.03
2019-01-15T14:54:15.069Z,14.55
2019-01-15T14:56:58.849Z,13.28
2019-01-15T14:59:30.491Z,15.08
2019-01-15T15:02:05.466Z,14.05
2019-01-15T15:04:40.091Z,12.88
2019-01-15T15:07:11.932Z,13.13
2019-01-15T15:09:55.875Z,12.50
2019-01-15T15:12:27.606Z,14.55
2019-01-15T15:14:56.470Z,12.95
2019-01-15T15:17:31.598Z,14.45
2019-01-15T15:20:01.315Z,13.60
2019-01-15T15:22:30.403Z,12.78
2019-01-15T15:24:59.313Z,14.30
2019-01-15T15:27:34.217Z,13.55
2019-01-15T15:30:03.148Z,12.63
2019-01-15T15:32:50.328Z,13.13
2019-01-15T15:35:19.239Z,14.20
2019-01-15T15:37:48.101Z,16.32
2019-01-15T15:40:19.998Z,14.73
2019-01-15T15:43:05.510Z,16.37
2019-01-15T15:45:40.355Z,14.55
2019-01-15T15:48:26.049Z,15.48
2019-01-15T15:51:10.006Z,12.93
2019-01-15T15:53:47.804Z,14.05
2019-01-15T15:56:28.491Z,13.38
2019-01-15T15:58:57.444Z,12.47
2019-01-15T16:01:35.660Z,13.62
2019-01-15T16:04:07.678Z,13.90
2019-01-15T16:06:39.361Z,12.75
2019-01-15T16:09:14.037Z,16.90
2019-01-15T16:11:52.024Z,13.28
2019-01-15T16:14:26.570Z,13.68
2019-01-15T16:16:55.508Z,13.35
2019-01-15T16:19:30.623Z,12.93
2019-01-15T16:22:02.387Z,13.18
2019-01-15T16:24:47.550Z,14.43
2019-01-15T16:27:32.823Z,13.08
2019-01-15T16:30:17.008Z,12.68
2019-01-15T16:32:57.968Z,14.18
2019-01-15T16:35:32.486Z,13.78
2019-01-15T16:38:04.152Z,13.80
2019-01-15T16:40:51.251Z,13.85
2019-01-15T16:43:32.286Z,13.18
2019-01-15T16:46:01.214Z,13.70
2019-01-15T16:48:32.815Z,14.85
2019-01-15T16:51:01.800Z,14.53
2019-01-15T16:53:36.672Z,14.83
2019-01-15T16:56:20.527Z,15.18
2019-01-15T16:58:49.456Z,15.95
2019-01-15T17:01:21.432Z,15.32
2019-01-15T17:03:59.162Z,14.85
2019-01-15T17:06:33.688Z,14.43
2019-01-15T17:09:17.898Z,13.83
2019-01-15T17:11:46.821Z,14.70
2019-01-15T17:14:32.185Z,14.83
2019-01-15T17:17:06.922Z,13.60
2019-01-15T17:19:54.272Z,14.55
2019-01-15T17:22:29.302Z,14.15
2019-01-15T17:25:13.252Z,14.50
2019-01-15T17:27:42.181Z,14.30
2019-01-15T17:30:12.730Z,21.97
2019-01-15T17:32:53.586Z,17.60
2019-01-15T17:35:25.435Z,14.33
2019-01-15T17:38:00.398Z,14.05
2019-01-15T17:40:29.266Z,19.48
2019-01-15T17:43:16.459Z,16.55
2019-01-15T17:45:48.115Z,16.07
2019-01-15T17:48:33.646Z,15.35
2019-01-15T17:51:18.913Z,18.12
2019-01-15T17:54:05.786Z,16.40
2019-01-15T17:56:40.426Z,16.20
2019-01-15T17:59:24.514Z,18.62
2019-01-15T18:01:53.475Z,15.78
2019-01-15T18:04:25.519Z,17.98
2019-01-15T18:06:57.141Z,19.25
2019-01-15T18:09:26.152Z,14.85
2019-01-15T18:11:57.989Z,18.73
2019-01-15T18:14:29.687Z,17.85
2019-01-15T18:17:13.875Z,14.87
2019-01-15T18:19:45.660Z,16.07
2019-01-15T18:22:23.729Z,16.35
2019-01-15T18:24:58.533Z,18.35
2019-01-15T18:27:42.763Z,17.00
2019-01-15T18:30:28.908Z,20.97
2019-01-15T18:33:00.551Z,23.07
2019-01-15T18:35:32.443Z,16.17
2019-01-15T18:38:06.960Z,16.35
2019-01-15T18:40:44.695Z,17.27
2019-01-15T18:43:16.335Z,21.25
2019-01-15T18:45:45.202Z,16.90
2019-01-15T18:48:26.217Z,16.55
2019-01-15T18:50:57.835Z,17.27
2019-01-15T18:53:26.764Z,19.32
2019-01-15T18:55:58.842Z,19.07
2019-01-15T18:58:27.782Z,17.82
2019-01-15T19:00:56.634Z,16.20
2019-01-15T19:03:28.291Z,17.45
2019-01-15T19:05:59.910Z,15.32
2019-01-15T19:08:31.710Z,17.77
2019-01-15T19:11:17.300Z,18.42
2019-01-15T19:13:51.842Z,19.85
2019-01-15T19:16:23.643Z,21.97
2019-01-15T19:18:55.163Z,16.87
2019-01-15T19:21:24.082Z,17.30
2019-01-15T19:24:11.418Z,17.27
2019-01-15T19:26:58.804Z,18.90
2019-01-15T19:29:39.804Z,19.12
2019-01-15T19:32:08.752Z,18.65
2019-01-15T19:34:54.223Z,18.92
2019-01-15T19:37:23.175Z,15.45
2019-01-15T19:39:54.790Z,17.42
2019-01-15T19:42:23.668Z,17.87
2019-01-15T19:44:52.598Z,15.70
2019-01-15T19:47:30.739Z,16.25
2019-01-15T19:50:11.719Z,16.57
2019-01-15T19:52:46.408Z,16.45
2019-01-15T19:55:31.784Z,17.00
2019-01-15T19:58:00.740Z,18.82
2019-01-15T20:00:44.678Z,21.07
2019-01-15T20:03:30.125Z,17.90
2019-01-15T20:06:07.929Z,15.68
2019-01-15T20:08:53.232Z,14.90
2019-01-15T20:11:38.428Z,14.93
2019-01-15T20:14:25.436Z,13.78
2019-01-15T20:17:00.364Z,15.38
2019-01-15T20:19:38.495Z,16.77
2019-01-15T20:22:23.778Z,17.17
2019-01-15T20:24:52.635Z,16.73
2019-01-15T20:27:24.559Z,22.35
2019-01-15T20:30:02.798Z,16.82
2019-01-15T20:32:40.997Z,18.10
2019-01-15T20:35:12.877Z,17.27
2019-01-15T20:37:54.056Z,18.02
2019-01-15T20:40:39.372Z,21.93
2019-01-15T20:43:17.296Z,29.42
2019-01-15T20:45:46.230Z,24.77
2019-01-15T20:48:17.919Z,19.57
2019-01-15T20:51:04.754Z,16.60
2019-01-15T20:53:42.939Z,17.40
2019-01-15T20:56:28.562Z,15.80
2019-01-15T20:59:03.493Z,17.27
2019-01-15T21:01:38.231Z,16.25
2019-01-15T21:04:12.895Z,15.98
2019-01-15T21:06:47.611Z,16.67
2019-01-15T21:09:32.895Z,16.42
2019-01-15T21:12:13.873Z,14.45
2019-01-15T21:14:45.784Z,19.73
2019-01-15T21:17:17.306Z,15.05
2019-01-15T21:19:55.242Z,15.18
2019-01-15T21:22:40.588Z,15.32
2019-01-15T21:25:15.369Z,17.82
2019-01-15T21:27:44.218Z,18.60
2019-01-15T21:30:23.503Z,13.65
2019-01-15T21:33:01.186Z,14.18
2019-01-15T21:35:46.729Z,15.30
2019-01-15T21:38:31.022Z,13.62
2019-01-15T21:41:18.388Z,14.83
2019-01-15T21:44:03.759Z,13.80
2019-01-15T21:46:50.976Z,14.83
2019-01-15T21:49:19.918Z,14.60
2019-01-15T21:52:04.186Z,13.90
2019-01-15T21:54:36.378Z,14.35
2019-01-15T21:57:05.340Z,12.95
2019-01-15T21:59:34.263Z,13.00
2019-01-15T22:02:18.204Z,14.20
2019-01-15T22:05:05.509Z,12.73
2019-01-15T22:07:43.731Z,11.97
2019-01-15T22:10:12.656Z,12.18
2019-01-15T22:12:58.262Z,13.48
2019-01-15T22:15:35.881Z,12.88
2019-01-15T22:18:10.565Z,11.80
2019-01-15T22:20:48.542Z,14.05
2019-01-15T22:23:32.799Z,11.93
2019-01-15T22:26:10.943Z,11.90
2019-01-15T22:28:42.932Z,13.32
2019-01-15T22:31:20.884Z,12.90
2019-01-15T22:33:49.816Z,19.92
2019-01-15T22:36:24.666Z,12.55
2019-01-15T22:39:05.407Z,15.43
2019-01-15T22:41:36.990Z,14.03
2019-01-15T22:44:05.912Z,13.78
2019-01-15T22:46:51.503Z,13.28
2019-01-15T22:49:23.195Z,12.90
2019-01-15T22:51:54.923Z,13.95
2019-01-15T22:54:26.555Z,11.60
2019-01-15T22:57:01.270Z,13.35
2019-01-15T22:59:48.467Z,13.18
2019-01-15T23:02:29.937Z,13.70
2019-01-15T23:05:04.557Z,18.73
2019-01-15T23:07:42.506Z,13.45
2019-01-15T23:10:14.194Z,13.20
2019-01-15T23:12:46.422Z,14.68
2019-01-15T23:15:15.424Z,16.60
2019-01-15T23:17:53.374Z,13.68
2019-01-15T23:20:38.641Z,12.47
2019-01-15T23:23:13.590Z,12.90
2019-01-15T23:25:57.662Z,12.07
2019-01-15T23:28:32.492Z,12.47
2019-01-15T23:31:07.408Z,13.32
2019-01-15T23:33:42.155Z,13.03
2019-01-15T23:36:16.871Z,12.07
2019-01-15T23:38:45.821Z,13.10
2019-01-15T23:41:20.801Z,12.43
2019-01-15T23:44:01.684Z,12.93
2019-01-15T23:46:33.765Z,13.35
2019-01-15T23:49:19.340Z,15.18
2019-01-15T23:51:48.267Z,15.05
2019-01-15T23:54:20.094Z,13.28
2019-01-15T23:56:51.937Z,12.03
2019-01-15T23:59:20.863Z,13.48
